sensor_id;sensor_type;location;lat;lon;timestamp;temperature;humidity
25438;DHT22;13364;49.084;9.978;2023-03-21T00:01:54;9.40;82.70
25438;DHT22;13364;49.084;9.978;2023-03-21T00:04:22;9.40;82.10
25438;DHT22;13364;49.084;9.978;2023-03-21T00:06:50;9.40;82.20
25438;DHT22;13364;49.084;9.978;2023-03-21T00:09:17;9.30;81.60
25438;DHT22;13364;49.084;9.978;2023-03-21T00:11:45;9.20;81.30
25438;DHT22;13364;49.084;9.978;2023-03-21T00:14:12;9.10;81.50
25438;DHT22;13364;49.084;9.978;2023-03-21T00:16:47;9.00;81.70
25438;DHT22;13364;49.084;9.978;2023-03-21T00:19:20;9.00;82.10
25438;DHT22;13364;49.084;9.978;2023-03-21T00:21:47;8.90;82.10
25438;DHT22;13364;49.084;9.978;2023-03-21T00:24:34;8.80;82.40
25438;DHT22;13364;49.084;9.978;2023-03-21T00:27:01;8.90;82.70
25438;DHT22;13364;49.084;9.978;2023-03-21T00:29:48;8.80;82.20
25438;DHT22;13364;49.084;9.978;2023-03-21T00:32:17;8.80;82.50
25438;DHT22;13364;49.084;9.978;2023-03-21T00:34:47;8.80;82.50
25438;DHT22;13364;49.084;9.978;2023-03-21T00:37:34;8.80;82.70
25438;DHT22;13364;49.084;9.978;2023-03-21T00:40:01;8.70;83.50
25438;DHT22;13364;49.084;9.978;2023-03-21T00:42:30;8.70;83.90
25438;DHT22;13364;49.084;9.978;2023-03-21T00:44:57;8.70;83.80
25438;DHT22;13364;49.084;9.978;2023-03-21T00:47:24;8.70;83.80
25438;DHT22;13364;49.084;9.978;2023-03-21T00:49:51;8.60;84.00
25438;DHT22;13364;49.084;9.978;2023-03-21T00:52:18;8.60;84.00
25438;DHT22;13364;49.084;9.978;2023-03-21T00:55:00;8.60;83.90
25438;DHT22;13364;49.084;9.978;2023-03-21T00:57:27;8.60;83.90
25438;DHT22;13364;49.084;9.978;2023-03-21T01:00:05;8.60;83.90
25438;DHT22;13364;49.084;9.978;2023-03-21T01:02:34;8.50;84.30
25438;DHT22;13364;49.084;9.978;2023-03-21T01:05:01;8.60;84.40
25438;DHT22;13364;49.084;9.978;2023-03-21T01:07:28;8.60;84.80
25438;DHT22;13364;49.084;9.978;2023-03-21T01:09:55;8.70;84.80
25438;DHT22;13364;49.084;9.978;2023-03-21T01:12:24;8.70;85.20
25438;DHT22;13364;49.084;9.978;2023-03-21T01:14:51;8.80;85.20
25438;DHT22;13364;49.084;9.978;2023-03-21T01:17:18;8.90;85.30
25438;DHT22;13364;49.084;9.978;2023-03-21T01:19:46;8.90;85.20
25438;DHT22;13364;49.084;9.978;2023-03-21T01:22:18;9.00;84.80
25438;DHT22;13364;49.084;9.978;2023-03-21T01:24:46;9.00;84.40
25438;DHT22;13364;49.084;9.978;2023-03-21T01:27:24;9.00;84.20
25438;DHT22;13364;49.084;9.978;2023-03-21T01:29:51;9.10;84.50
25438;DHT22;13364;49.084;9.978;2023-03-21T01:32:18;9.10;84.60
25438;DHT22;13364;49.084;9.978;2023-03-21T01:34:45;9.10;84.80
25438;DHT22;13364;49.084;9.978;2023-03-21T01:37:12;9.00;84.80
25438;DHT22;13364;49.084;9.978;2023-03-21T01:39:46;9.10;84.60
25438;DHT22;13364;49.084;9.978;2023-03-21T01:42:13;9.10;84.70
25438;DHT22;13364;49.084;9.978;2023-03-21T01:47:19;9.10;84.90
25438;DHT22;13364;49.084;9.978;2023-03-21T01:50:05;9.10;84.90
25438;DHT22;13364;49.084;9.978;2023-03-21T01:56:38;9.10;85.00
25438;DHT22;13364;49.084;9.978;2023-03-21T01:59:11;9.10;85.10
25438;DHT22;13364;49.084;9.978;2023-03-21T02:02:14;9.10;85.20
25438;DHT22;13364;49.084;9.978;2023-03-21T02:04:57;9.10;85.10
25438;DHT22;13364;49.084;9.978;2023-03-21T02:07:32;9.10;85.30
25438;DHT22;13364;49.084;9.978;2023-03-21T02:10:08;9.10;85.50
25438;DHT22;13364;49.084;9.978;2023-03-21T02:12:40;9.10;85.50
25438;DHT22;13364;49.084;9.978;2023-03-21T02:15:09;9.10;85.50
25438;DHT22;13364;49.084;9.978;2023-03-21T02:23:55;9.00;85.50
25438;DHT22;13364;49.084;9.978;2023-03-21T02:32:38;8.90;85.90
25438;DHT22;13364;49.084;9.978;2023-03-21T02:39:00;8.90;85.80
25438;DHT22;13364;49.084;9.978;2023-03-21T02:46:57;8.80;86.00
25438;DHT22;13364;49.084;9.978;2023-03-21T02:49:47;8.80;86.10
25438;DHT22;13364;49.084;9.978;2023-03-21T02:52:20;8.80;86.20
25438;DHT22;13364;49.084;9.978;2023-03-21T02:55:11;8.80;86.30
25438;DHT22;13364;49.084;9.978;2023-03-21T02:57:56;8.80;86.30
25438;DHT22;13364;49.084;9.978;2023-03-21T03:00:37;8.80;86.10
25438;DHT22;13364;49.084;9.978;2023-03-21T03:03:05;8.70;86.40
25438;DHT22;13364;49.084;9.978;2023-03-21T03:05:46;8.70;86.30
25438;DHT22;13364;49.084;9.978;2023-03-21T03:08:35;8.70;86.50
25438;DHT22;13364;49.084;9.978;2023-03-21T03:11:37;8.70;86.50
25438;DHT22;13364;49.084;9.978;2023-03-21T03:17:13;8.70;86.40
25438;DHT22;13364;49.084;9.978;2023-03-21T03:25:35;8.60;86.50
25438;DHT22;13364;49.084;9.978;2023-03-21T03:28:14;8.60;86.60
25438;DHT22;13364;49.084;9.978;2023-03-21T03:30:45;8.60;86.60
25438;DHT22;13364;49.084;9.978;2023-03-21T03:33:38;8.60;86.80
25438;DHT22;13364;49.084;9.978;2023-03-21T03:36:11;8.60;87.00
25438;DHT22;13364;49.084;9.978;2023-03-21T03:38:59;8.60;87.00
25438;DHT22;13364;49.084;9.978;2023-03-21T03:41:30;8.60;86.80
25438;DHT22;13364;49.084;9.978;2023-03-21T03:44:19;8.60;86.70
25438;DHT22;13364;49.084;9.978;2023-03-21T03:46:58;8.60;86.80
25438;DHT22;13364;49.084;9.978;2023-03-21T03:49:31;8.50;86.80
25438;DHT22;13364;49.084;9.978;2023-03-21T03:52:11;8.50;86.80
25438;DHT22;13364;49.084;9.978;2023-03-21T03:54:46;8.50;86.80
25438;DHT22;13364;49.084;9.978;2023-03-21T03:57:15;8.50;86.90
25438;DHT22;13364;49.084;9.978;2023-03-21T03:59:44;8.50;86.80
25438;DHT22;13364;49.084;9.978;2023-03-21T04:02:30;8.50;86.70
25438;DHT22;13364;49.084;9.978;2023-03-21T04:05:01;8.50;86.60
25438;DHT22;13364;49.084;9.978;2023-03-21T04:07:30;8.50;86.70
25438;DHT22;13364;49.084;9.978;2023-03-21T04:09:59;8.50;86.90
25438;DHT22;13364;49.084;9.978;2023-03-21T04:12:26;8.50;86.80
25438;DHT22;13364;49.084;9.978;2023-03-21T04:15:29;8.40;87.00
25438;DHT22;13364;49.084;9.978;2023-03-21T04:18:03;8.50;86.80
25438;DHT22;13364;49.084;9.978;2023-03-21T04:20:30;8.40;86.90
25438;DHT22;13364;49.084;9.978;2023-03-21T04:23:04;8.40;86.80
25438;DHT22;13364;49.084;9.978;2023-03-21T04:25:36;8.40;86.70
25438;DHT22;13364;49.084;9.978;2023-03-21T04:28:13;8.40;86.90
25438;DHT22;13364;49.084;9.978;2023-03-21T04:30:51;8.40;87.20
25438;DHT22;13364;49.084;9.978;2023-03-21T04:33:36;8.40;87.30
25438;DHT22;13364;49.084;9.978;2023-03-21T04:36:06;8.40;87.20
25438;DHT22;13364;49.084;9.978;2023-03-21T04:38:36;8.40;87.20
25438;DHT22;13364;49.084;9.978;2023-03-21T04:41:03;8.30;87.00
25438;DHT22;13364;49.084;9.978;2023-03-21T04:43:30;8.30;87.10
25438;DHT22;13364;49.084;9.978;2023-03-21T04:45:57;8.30;87.30
25438;DHT22;13364;49.084;9.978;2023-03-21T04:48:25;8.30;87.50
25438;DHT22;13364;49.084;9.978;2023-03-21T04:50:52;8.30;87.30
25438;DHT22;13364;49.084;9.978;2023-03-21T04:53:19;8.20;87.30
25438;DHT22;13364;49.084;9.978;2023-03-21T04:55:51;8.20;87.10
25438;DHT22;13364;49.084;9.978;2023-03-21T04:58:21;8.20;87.20
25438;DHT22;13364;49.084;9.978;2023-03-21T05:00:48;8.20;87.20
25438;DHT22;13364;49.084;9.978;2023-03-21T05:03:19;8.20;87.50
25438;DHT22;13364;49.084;9.978;2023-03-21T05:05:48;8.20;87.60
25438;DHT22;13364;49.084;9.978;2023-03-21T05:08:17;8.20;87.60
25438;DHT22;13364;49.084;9.978;2023-03-21T05:10:44;8.20;87.60
25438;DHT22;13364;49.084;9.978;2023-03-21T05:13:12;8.20;87.50
25438;DHT22;13364;49.084;9.978;2023-03-21T05:15:39;8.20;87.60
25438;DHT22;13364;49.084;9.978;2023-03-21T05:18:06;8.20;87.60
25438;DHT22;13364;49.084;9.978;2023-03-21T05:20:57;8.20;87.50
25438;DHT22;13364;49.084;9.978;2023-03-21T05:23:24;8.20;87.40
25438;DHT22;13364;49.084;9.978;2023-03-21T05:25:51;8.10;87.40
25438;DHT22;13364;49.084;9.978;2023-03-21T05:28:32;8.10;87.30
25438;DHT22;13364;49.084;9.978;2023-03-21T05:31:03;8.10;87.20
25438;DHT22;13364;49.084;9.978;2023-03-21T05:33:30;8.10;87.30
25438;DHT22;13364;49.084;9.978;2023-03-21T05:35:57;8.10;87.40
25438;DHT22;13364;49.084;9.978;2023-03-21T05:38:28;8.10;87.60
25438;DHT22;13364;49.084;9.978;2023-03-21T05:41:23;8.10;87.60
25438;DHT22;13364;49.084;9.978;2023-03-21T05:43:50;8.10;87.80
25438;DHT22;13364;49.084;9.978;2023-03-21T05:46:17;8.10;88.10
25438;DHT22;13364;49.084;9.978;2023-03-21T05:48:44;8.10;88.40
25438;DHT22;13364;49.084;9.978;2023-03-21T05:51:14;8.10;88.60
25438;DHT22;13364;49.084;9.978;2023-03-21T05:53:53;8.10;88.70
25438;DHT22;13364;49.084;9.978;2023-03-21T05:59:59;8.00;88.90
25438;DHT22;13364;49.084;9.978;2023-03-21T06:02:28;8.00;89.00
25438;DHT22;13364;49.084;9.978;2023-03-21T06:04:59;8.10;88.90
25438;DHT22;13364;49.084;9.978;2023-03-21T06:07:26;8.10;89.00
25438;DHT22;13364;49.084;9.978;2023-03-21T06:09:54;8.10;89.00
25438;DHT22;13364;49.084;9.978;2023-03-21T06:12:21;8.10;88.70
25438;DHT22;13364;49.084;9.978;2023-03-21T06:15:21;8.10;88.70
25438;DHT22;13364;49.084;9.978;2023-03-21T06:17:57;8.20;88.60
25438;DHT22;13364;49.084;9.978;2023-03-21T06:20:27;8.20;88.60
25438;DHT22;13364;49.084;9.978;2023-03-21T06:23:01;8.20;88.10
25438;DHT22;13364;49.084;9.978;2023-03-21T06:25:28;8.20;87.90
25438;DHT22;13364;49.084;9.978;2023-03-21T06:27:56;8.20;88.10
25438;DHT22;13364;49.084;9.978;2023-03-21T06:30:24;8.20;87.70
25438;DHT22;13364;49.084;9.978;2023-03-21T06:33:04;8.20;87.70
25438;DHT22;13364;49.084;9.978;2023-03-21T06:35:31;8.20;88.20
25438;DHT22;13364;49.084;9.978;2023-03-21T06:37:59;8.10;88.40
25438;DHT22;13364;49.084;9.978;2023-03-21T06:40:30;8.10;88.50
25438;DHT22;13364;49.084;9.978;2023-03-21T06:42:57;8.10;88.90
25438;DHT22;13364;49.084;9.978;2023-03-21T06:45:24;8.10;89.40
25438;DHT22;13364;49.084;9.978;2023-03-21T06:47:52;8.10;89.50
25438;DHT22;13364;49.084;9.978;2023-03-21T06:50:29;8.10;89.60
25438;DHT22;13364;49.084;9.978;2023-03-21T06:52:57;8.20;89.80
25438;DHT22;13364;49.084;9.978;2023-03-21T06:55:27;8.20;90.00
25438;DHT22;13364;49.084;9.978;2023-03-21T06:57:57;8.20;90.00
25438;DHT22;13364;49.084;9.978;2023-03-21T07:00:26;8.30;89.90
25438;DHT22;13364;49.084;9.978;2023-03-21T07:02:53;8.20;89.60
25438;DHT22;13364;49.084;9.978;2023-03-21T07:05:23;8.30;89.90
25438;DHT22;13364;49.084;9.978;2023-03-21T07:07:50;8.30;89.80
25438;DHT22;13364;49.084;9.978;2023-03-21T07:10:17;8.40;89.50
25438;DHT22;13364;49.084;9.978;2023-03-21T07:12:54;8.40;89.30
25438;DHT22;13364;49.084;9.978;2023-03-21T07:15:43;8.40;88.90
25438;DHT22;13364;49.084;9.978;2023-03-21T07:18:11;8.50;88.90
25438;DHT22;13364;49.084;9.978;2023-03-21T07:20:38;8.50;88.80
25438;DHT22;13364;49.084;9.978;2023-03-21T07:23:05;8.50;89.40
25438;DHT22;13364;49.084;9.978;2023-03-21T07:25:32;8.60;89.10
25438;DHT22;13364;49.084;9.978;2023-03-21T07:28:00;8.70;88.70
25438;DHT22;13364;49.084;9.978;2023-03-21T07:30:27;8.70;88.30
25438;DHT22;13364;49.084;9.978;2023-03-21T07:32:54;8.70;88.50
25438;DHT22;13364;49.084;9.978;2023-03-21T07:35:21;8.70;88.40
25438;DHT22;13364;49.084;9.978;2023-03-21T07:37:48;8.80;88.50
25438;DHT22;13364;49.084;9.978;2023-03-21T07:40:16;8.90;88.60
25438;DHT22;13364;49.084;9.978;2023-03-21T07:42:44;8.90;88.00
25438;DHT22;13364;49.084;9.978;2023-03-21T07:45:12;9.00;88.00
25438;DHT22;13364;49.084;9.978;2023-03-21T07:47:47;9.10;88.30
25438;DHT22;13364;49.084;9.978;2023-03-21T07:50:14;9.30;88.00
25438;DHT22;13364;49.084;9.978;2023-03-21T07:52:43;9.40;86.10
25438;DHT22;13364;49.084;9.978;2023-03-21T07:55:10;9.40;85.80
25438;DHT22;13364;49.084;9.978;2023-03-21T07:57:37;9.40;85.90
25438;DHT22;13364;49.084;9.978;2023-03-21T08:00:04;9.40;84.60
25438;DHT22;13364;49.084;9.978;2023-03-21T08:02:38;9.40;85.40
25438;DHT22;13364;49.084;9.978;2023-03-21T08:05:06;9.40;86.00
25438;DHT22;13364;49.084;9.978;2023-03-21T08:07:33;9.50;86.40
25438;DHT22;13364;49.084;9.978;2023-03-21T08:10:00;9.60;84.80
25438;DHT22;13364;49.084;9.978;2023-03-21T08:12:27;9.70;84.70
25438;DHT22;13364;49.084;9.978;2023-03-21T08:14:54;9.90;84.70
25438;DHT22;13364;49.084;9.978;2023-03-21T08:17:21;10.10;83.90
25438;DHT22;13364;49.084;9.978;2023-03-21T08:19:48;10.20;83.50
25438;DHT22;13364;49.084;9.978;2023-03-21T08:22:15;10.20;83.20
25438;DHT22;13364;49.084;9.978;2023-03-21T08:24:43;10.30;82.80
25438;DHT22;13364;49.084;9.978;2023-03-21T08:27:10;10.30;82.40
25438;DHT22;13364;49.084;9.978;2023-03-21T08:29:37;10.30;82.60
25438;DHT22;13364;49.084;9.978;2023-03-21T08:32:06;10.30;80.80
25438;DHT22;13364;49.084;9.978;2023-03-21T08:34:33;10.40;80.90
25438;DHT22;13364;49.084;9.978;2023-03-21T08:37:01;10.50;78.90
25438;DHT22;13364;49.084;9.978;2023-03-21T08:39:28;10.60;80.30
25438;DHT22;13364;49.084;9.978;2023-03-21T08:41:55;10.70;79.50
25438;DHT22;13364;49.084;9.978;2023-03-21T08:44:22;10.80;79.30
25438;DHT22;13364;49.084;9.978;2023-03-21T08:46:51;10.90;79.20
25438;DHT22;13364;49.084;9.978;2023-03-21T08:53:07;11.10;78.50
25438;DHT22;13364;49.084;9.978;2023-03-21T08:55:34;11.20;77.80
25438;DHT22;13364;49.084;9.978;2023-03-21T08:58:01;11.30;77.20
25438;DHT22;13364;49.084;9.978;2023-03-21T09:00:28;11.40;77.40
25438;DHT22;13364;49.084;9.978;2023-03-21T09:02:55;11.50;76.40
25438;DHT22;13364;49.084;9.978;2023-03-21T09:05:24;11.60;75.90
25438;DHT22;13364;49.084;9.978;2023-03-21T09:07:53;11.60;75.50
25438;DHT22;13364;49.084;9.978;2023-03-21T09:10:21;11.60;74.00
25438;DHT22;13364;49.084;9.978;2023-03-21T09:12:51;11.60;74.90
25438;DHT22;13364;49.084;9.978;2023-03-21T09:15:19;11.70;74.90
25438;DHT22;13364;49.084;9.978;2023-03-21T09:17:48;11.70;73.20
25438;DHT22;13364;49.084;9.978;2023-03-21T09:20:20;11.70;73.50
25438;DHT22;13364;49.084;9.978;2023-03-21T09:22:57;11.70;73.20
25438;DHT22;13364;49.084;9.978;2023-03-21T09:25:25;11.80;71.60
25438;DHT22;13364;49.084;9.978;2023-03-21T09:27:58;11.90;71.50
25438;DHT22;13364;49.084;9.978;2023-03-21T09:30:26;12.00;70.70
25438;DHT22;13364;49.084;9.978;2023-03-21T09:32:54;12.10;71.00
25438;DHT22;13364;49.084;9.978;2023-03-21T09:35:22;12.20;71.20
25438;DHT22;13364;49.084;9.978;2023-03-21T09:37:50;12.30;68.40
25438;DHT22;13364;49.084;9.978;2023-03-21T09:40:26;12.30;68.00
25438;DHT22;13364;49.084;9.978;2023-03-21T09:49:05;12.60;68.50
25438;DHT22;13364;49.084;9.978;2023-03-21T09:51:41;12.70;65.80
25438;DHT22;13364;49.084;9.978;2023-03-21T09:54:36;13.00;66.20
25438;DHT22;13364;49.084;9.978;2023-03-21T09:57:15;13.20;62.00
25438;DHT22;13364;49.084;9.978;2023-03-21T09:59:47;13.20;61.60
25438;DHT22;13364;49.084;9.978;2023-03-21T10:02:34;13.30;60.80
25438;DHT22;13364;49.084;9.978;2023-03-21T10:05:09;13.40;58.00
25438;DHT22;13364;49.084;9.978;2023-03-21T10:07:41;13.60;57.80
25438;DHT22;13364;49.084;9.978;2023-03-21T10:10:24;13.70;60.10
25438;DHT22;13364;49.084;9.978;2023-03-21T10:12:54;13.90;60.00
25438;DHT22;13364;49.084;9.978;2023-03-21T10:15:24;14.00;60.90
25438;DHT22;13364;49.084;9.978;2023-03-21T10:18:02;14.20;60.90
25438;DHT22;13364;49.084;9.978;2023-03-21T10:20:35;14.30;60.30
25438;DHT22;13364;49.084;9.978;2023-03-21T10:23:07;14.40;59.70
25438;DHT22;13364;49.084;9.978;2023-03-21T10:25:48;14.40;59.50
25438;DHT22;13364;49.084;9.978;2023-03-21T10:28:20;14.40;59.90
25438;DHT22;13364;49.084;9.978;2023-03-21T10:30:49;14.50;59.80
25438;DHT22;13364;49.084;9.978;2023-03-21T10:33:22;14.60;60.70
25438;DHT22;13364;49.084;9.978;2023-03-21T10:35:52;14.70;60.30
25438;DHT22;13364;49.084;9.978;2023-03-21T10:38:23;14.80;60.30
25438;DHT22;13364;49.084;9.978;2023-03-21T10:40:51;15.00;58.00
25438;DHT22;13364;49.084;9.978;2023-03-21T10:48:40;15.10;58.50
25438;DHT22;13364;49.084;9.978;2023-03-21T10:51:18;15.20;60.60
25438;DHT22;13364;49.084;9.978;2023-03-21T10:53:52;15.40;58.20
25438;DHT22;13364;49.084;9.978;2023-03-21T10:56:30;15.40;57.40
25438;DHT22;13364;49.084;9.978;2023-03-21T10:58:59;15.40;57.70
25438;DHT22;13364;49.084;9.978;2023-03-21T11:01:35;15.50;57.50
25438;DHT22;13364;49.084;9.978;2023-03-21T11:04:13;15.50;58.90
25438;DHT22;13364;49.084;9.978;2023-03-21T11:06:43;15.60;58.40
25438;DHT22;13364;49.084;9.978;2023-03-21T11:09:20;15.70;58.30
25438;DHT22;13364;49.084;9.978;2023-03-21T11:12:01;15.80;57.50
25438;DHT22;13364;49.084;9.978;2023-03-21T11:18:14;15.70;57.50
25438;DHT22;13364;49.084;9.978;2023-03-21T11:20:48;15.50;56.90
25438;DHT22;13364;49.084;9.978;2023-03-21T11:23:16;15.40;57.50
25438;DHT22;13364;49.084;9.978;2023-03-21T11:25:48;15.40;58.20
25438;DHT22;13364;49.084;9.978;2023-03-21T11:28:25;15.40;57.80
25438;DHT22;13364;49.084;9.978;2023-03-21T11:31:00;15.20;58.80
25438;DHT22;13364;49.084;9.978;2023-03-21T11:33:51;15.10;58.90
25438;DHT22;13364;49.084;9.978;2023-03-21T11:38:56;14.90;59.30
25438;DHT22;13364;49.084;9.978;2023-03-21T11:41:32;15.00;59.80
25438;DHT22;13364;49.084;9.978;2023-03-21T11:44:00;15.00;59.70
25438;DHT22;13364;49.084;9.978;2023-03-21T11:46:31;15.10;60.10
25438;DHT22;13364;49.084;9.978;2023-03-21T11:48:59;15.10;58.60
25438;DHT22;13364;49.084;9.978;2023-03-21T11:54:19;15.10;61.30
25438;DHT22;13364;49.084;9.978;2023-03-21T11:56:52;15.40;61.60
25438;DHT22;13364;49.084;9.978;2023-03-21T12:04:40;16.00;58.50
25438;DHT22;13364;49.084;9.978;2023-03-21T12:11:37;16.00;57.50
25438;DHT22;13364;49.084;9.978;2023-03-21T12:20:13;15.90;56.80
25438;DHT22;13364;49.084;9.978;2023-03-21T12:25:37;16.00;56.90
25438;DHT22;13364;49.084;9.978;2023-03-21T12:39:56;15.70;59.00
25438;DHT22;13364;49.084;9.978;2023-03-21T12:45:38;15.80;56.90
25438;DHT22;13364;49.084;9.978;2023-03-21T12:48:21;15.90;57.30
25438;DHT22;13364;49.084;9.978;2023-03-21T12:50:53;15.90;57.80
25438;DHT22;13364;49.084;9.978;2023-03-21T12:56:09;16.20;56.70
25438;DHT22;13364;49.084;9.978;2023-03-21T12:58:55;16.40;56.40
25438;DHT22;13364;49.084;9.978;2023-03-21T13:01:23;16.50;55.10
25438;DHT22;13364;49.084;9.978;2023-03-21T13:07:53;16.10;56.20
25438;DHT22;13364;49.084;9.978;2023-03-21T13:10:23;16.00;56.20
25438;DHT22;13364;49.084;9.978;2023-03-21T13:13:18;16.00;56.60
25438;DHT22;13364;49.084;9.978;2023-03-21T13:20:53;16.00;57.00
25438;DHT22;13364;49.084;9.978;2023-03-21T13:23:23;16.10;57.80
25438;DHT22;13364;49.084;9.978;2023-03-21T13:25:56;16.20;57.10
25438;DHT22;13364;49.084;9.978;2023-03-21T13:28:28;16.10;56.50
25438;DHT22;13364;49.084;9.978;2023-03-21T13:31:16;16.00;56.80
25438;DHT22;13364;49.084;9.978;2023-03-21T13:33:46;15.90;57.10
25438;DHT22;13364;49.084;9.978;2023-03-21T13:36:17;15.80;58.30
25438;DHT22;13364;49.084;9.978;2023-03-21T13:38:50;15.80;57.60
25438;DHT22;13364;49.084;9.978;2023-03-21T13:41:19;15.80;58.20
25438;DHT22;13364;49.084;9.978;2023-03-21T13:56:26;15.80;58.40
25438;DHT22;13364;49.084;9.978;2023-03-21T13:58:57;15.80;57.20
25438;DHT22;13364;49.084;9.978;2023-03-21T14:01:56;15.80;58.90
25438;DHT22;13364;49.084;9.978;2023-03-21T14:05:05;15.90;58.60
25438;DHT22;13364;49.084;9.978;2023-03-21T14:07:40;16.10;58.80
25438;DHT22;13364;49.084;9.978;2023-03-21T14:10:17;16.20;56.60
25438;DHT22;13364;49.084;9.978;2023-03-21T14:12:46;16.20;57.10
25438;DHT22;13364;49.084;9.978;2023-03-21T14:20:26;16.40;57.10
25438;DHT22;13364;49.084;9.978;2023-03-21T14:22:53;16.30;56.80
25438;DHT22;13364;49.084;9.978;2023-03-21T14:25:23;16.30;56.60
25438;DHT22;13364;49.084;9.978;2023-03-21T14:28:00;16.30;56.40
25438;DHT22;13364;49.084;9.978;2023-03-21T14:35:42;16.20;58.50
25438;DHT22;13364;49.084;9.978;2023-03-21T14:38:21;16.20;59.40
25438;DHT22;13364;49.084;9.978;2023-03-21T14:44:31;16.20;58.10
25438;DHT22;13364;49.084;9.978;2023-03-21T14:49:44;16.00;60.10
25438;DHT22;13364;49.084;9.978;2023-03-21T14:52:15;16.00;61.10
25438;DHT22;13364;49.084;9.978;2023-03-21T14:54:45;15.90;59.80
25438;DHT22;13364;49.084;9.978;2023-03-21T14:57:17;15.70;59.90
25438;DHT22;13364;49.084;9.978;2023-03-21T14:59:49;15.50;59.80
25438;DHT22;13364;49.084;9.978;2023-03-21T15:04:48;15.00;62.20
25438;DHT22;13364;49.084;9.978;2023-03-21T15:07:29;15.00;63.70
25438;DHT22;13364;49.084;9.978;2023-03-21T15:10:00;14.90;62.80
25438;DHT22;13364;49.084;9.978;2023-03-21T15:12:30;14.80;64.10
25438;DHT22;13364;49.084;9.978;2023-03-21T15:14:58;14.80;63.20
25438;DHT22;13364;49.084;9.978;2023-03-21T15:17:25;14.80;63.60
25438;DHT22;13364;49.084;9.978;2023-03-21T15:19:53;14.80;62.90
25438;DHT22;13364;49.084;9.978;2023-03-21T15:22:33;14.60;63.30
25438;DHT22;13364;49.084;9.978;2023-03-21T15:25:04;14.50;64.10
25438;DHT22;13364;49.084;9.978;2023-03-21T15:27:42;14.50;64.10
25438;DHT22;13364;49.084;9.978;2023-03-21T15:30:25;14.50;65.10
25438;DHT22;13364;49.084;9.978;2023-03-21T15:32:55;14.50;63.80
25438;DHT22;13364;49.084;9.978;2023-03-21T15:35:52;14.50;64.30
25438;DHT22;13364;49.084;9.978;2023-03-21T15:40:48;14.60;65.40
25438;DHT22;13364;49.084;9.978;2023-03-21T15:43:19;14.60;65.80
25438;DHT22;13364;49.084;9.978;2023-03-21T15:52:53;14.30;66.30
25438;DHT22;13364;49.084;9.978;2023-03-21T15:55:45;14.20;67.30
25438;DHT22;13364;49.084;9.978;2023-03-21T15:58:20;14.20;67.50
25438;DHT22;13364;49.084;9.978;2023-03-21T16:08:26;13.90;67.10
25438;DHT22;13364;49.084;9.978;2023-03-21T16:10:53;13.90;68.10
25438;DHT22;13364;49.084;9.978;2023-03-21T16:13:31;13.80;68.40
25438;DHT22;13364;49.084;9.978;2023-03-21T16:15:58;13.80;69.10
25438;DHT22;13364;49.084;9.978;2023-03-21T16:18:25;13.80;69.20
25438;DHT22;13364;49.084;9.978;2023-03-21T16:20:52;13.80;69.60
25438;DHT22;13364;49.084;9.978;2023-03-21T16:23:24;13.60;69.60
25438;DHT22;13364;49.084;9.978;2023-03-21T16:26:04;13.70;70.10
25438;DHT22;13364;49.084;9.978;2023-03-21T16:28:32;13.70;70.20
25438;DHT22;13364;49.084;9.978;2023-03-21T16:35:17;13.60;69.40
25438;DHT22;13364;49.084;9.978;2023-03-21T16:37:46;13.60;70.80
25438;DHT22;13364;49.084;9.978;2023-03-21T16:40:34;13.60;70.40
25438;DHT22;13364;49.084;9.978;2023-03-21T16:46:30;13.60;70.00
25438;DHT22;13364;49.084;9.978;2023-03-21T16:49:04;13.50;69.80
25438;DHT22;13364;49.084;9.978;2023-03-21T16:51:34;13.60;69.80
25438;DHT22;13364;49.084;9.978;2023-03-21T16:54:01;13.60;70.00
25438;DHT22;13364;49.084;9.978;2023-03-21T16:56:36;13.60;69.60
25438;DHT22;13364;49.084;9.978;2023-03-21T16:59:13;13.50;68.80
25438;DHT22;13364;49.084;9.978;2023-03-21T17:01:41;13.50;69.90
25438;DHT22;13364;49.084;9.978;2023-03-21T17:07:59;13.60;68.80
25438;DHT22;13364;49.084;9.978;2023-03-21T17:10:29;13.50;68.70
25438;DHT22;13364;49.084;9.978;2023-03-21T17:17:16;13.60;70.60
25438;DHT22;13364;49.084;9.978;2023-03-21T17:23:07;13.60;70.30
25438;DHT22;13364;49.084;9.978;2023-03-21T17:25:42;13.60;70.50
25438;DHT22;13364;49.084;9.978;2023-03-21T17:28:09;13.60;71.10
25438;DHT22;13364;49.084;9.978;2023-03-21T17:30:36;13.60;71.10
25438;DHT22;13364;49.084;9.978;2023-03-21T17:33:07;13.60;71.20
25438;DHT22;13364;49.084;9.978;2023-03-21T17:35:42;13.50;71.60
25438;DHT22;13364;49.084;9.978;2023-03-21T17:38:15;13.50;72.10
25438;DHT22;13364;49.084;9.978;2023-03-21T17:41:02;13.50;72.40
25438;DHT22;13364;49.084;9.978;2023-03-21T17:43:29;13.40;72.40
25438;DHT22;13364;49.084;9.978;2023-03-21T17:46:25;13.40;72.40
25438;DHT22;13364;49.084;9.978;2023-03-21T17:48:55;13.40;72.10
25438;DHT22;13364;49.084;9.978;2023-03-21T17:51:23;13.30;72.10
25438;DHT22;13364;49.084;9.978;2023-03-21T17:53:58;13.30;72.20
25438;DHT22;13364;49.084;9.978;2023-03-21T17:56:30;13.20;72.80
25438;DHT22;13364;49.084;9.978;2023-03-21T17:59:03;13.10;72.80
25438;DHT22;13364;49.084;9.978;2023-03-21T18:01:31;13.10;72.30
25438;DHT22;13364;49.084;9.978;2023-03-21T18:03:58;13.10;72.50
25438;DHT22;13364;49.084;9.978;2023-03-21T18:06:28;13.10;72.70
25438;DHT22;13364;49.084;9.978;2023-03-21T18:08:55;13.10;72.70
25438;DHT22;13364;49.084;9.978;2023-03-21T18:11:25;13.00;72.80
25438;DHT22;13364;49.084;9.978;2023-03-21T18:13:54;13.00;73.40
25438;DHT22;13364;49.084;9.978;2023-03-21T18:16:40;12.90;73.20
25438;DHT22;13364;49.084;9.978;2023-03-21T18:19:10;12.80;73.80
25438;DHT22;13364;49.084;9.978;2023-03-21T18:21:39;12.80;74.20
25438;DHT22;13364;49.084;9.978;2023-03-21T18:24:10;12.60;74.10
25438;DHT22;13364;49.084;9.978;2023-03-21T18:26:37;12.50;75.20
25438;DHT22;13364;49.084;9.978;2023-03-21T18:29:05;12.50;74.80
25438;DHT22;13364;49.084;9.978;2023-03-21T18:31:52;12.40;74.80
25438;DHT22;13364;49.084;9.978;2023-03-21T18:34:32;12.40;75.20
25438;DHT22;13364;49.084;9.978;2023-03-21T18:36:59;12.40;75.30
25438;DHT22;13364;49.084;9.978;2023-03-21T18:39:31;12.40;76.20
25438;DHT22;13364;49.084;9.978;2023-03-21T18:41:59;12.40;76.00
25438;DHT22;13364;49.084;9.978;2023-03-21T18:44:30;12.40;76.10
25438;DHT22;13364;49.084;9.978;2023-03-21T18:47:03;12.30;76.40
25438;DHT22;13364;49.084;9.978;2023-03-21T18:49:32;12.40;76.80
25438;DHT22;13364;49.084;9.978;2023-03-21T18:52:19;12.30;76.90
25438;DHT22;13364;49.084;9.978;2023-03-21T18:54:46;12.30;77.30
25438;DHT22;13364;49.084;9.978;2023-03-21T18:57:13;12.30;77.50
25438;DHT22;13364;49.084;9.978;2023-03-21T19:00:04;12.40;77.40
25438;DHT22;13364;49.084;9.978;2023-03-21T19:02:46;12.30;77.60
25438;DHT22;13364;49.084;9.978;2023-03-21T19:05:19;12.40;77.40
25438;DHT22;13364;49.084;9.978;2023-03-21T19:07:47;12.30;77.40
25438;DHT22;13364;49.084;9.978;2023-03-21T19:10:16;12.30;77.30